Time,TemperatureF,DewpointF,PressureIn,WindDirection,WindDirectionDegrees,WindSpeedMPH,WindSpeedGustMPH,Humidity,HourlyPrecipIn,Conditions,Clouds,dailyrainin,SoftwareType,DateUTC
2013-07-12 00:03:00,72.5,65.5,29.83,SSW,198,0.0,-999.0,65,0.00,,,0.00,Custom/Perl,2013-07-12 05:03:00,
2013-07-12 00:08:00,72.3,65.5,29.83,SSW,198,0.0,-999.0,66,0.00,,,0.00,Custom/Perl,2013-07-12 05:08:00,
2013-07-12 00:13:00,72.2,65.4,29.83,SE,143,0.0,-999.0,66,0.00,,,0.00,Custom/Perl,2013-07-12 05:13:00,
2013-07-12 00:18:00,72.1,65.3,29.83,SE,143,0.0,-999.0,66,0.00,,,0.00,Custom/Perl,2013-07-12 05:18:00,
2013-07-12 00:23:00,72.0,65.2,29.83,SE,143,0.0,-999.0,66,0.00,,,0.00,Custom/Perl,2013-07-12 05:23:00,
2013-07-12 00:28:00,71.8,65.2,29.83,SSE,160,0.0,-999.0,67,0.00,,,0.00,Custom/Perl,2013-07-12 05:28:00,
2013-07-12 00:34:00,71.6,65.0,29.83,SSE,160,0.0,-999.0,67,0.00,,,0.00,Custom/Perl,2013-07-12 05:34:00,
2013-07-12 00:39:00,71.5,64.9,29.83,South,176,0.0,-999.0,67,0.00,,,0.00,Custom/Perl,2013-07-12 05:39:00,
2013-07-12 00:44:00,71.4,64.8,29.83,WSW,237,0.0,-999.0,67,0.00,,,0.00,Custom/Perl,2013-07-12 05:44:00,
2013-07-12 00:49:00,71.5,64.9,29.83,South,190,0.0,-999.0,67,0.00,,,0.00,Custom/Perl,2013-07-12 05:49:00,
2013-07-12 00:54:00,71.4,64.8,29.83,South,186,0.0,-999.0,67,0.00,,,0.00,Custom/Perl,2013-07-12 05:54:00,
2013-07-12 01:00:00,71.3,64.7,29.83,South,186,0.0,-999.0,67,0.00,,,0.00,Custom/Perl,2013-07-12 06:00:00,
2013-07-12 01:05:00,71.1,64.7,29.83,South,186,0.0,-999.0,68,0.00,,,0.00,Custom/Perl,2013-07-12 06:05:00,
2013-07-12 01:10:00,71.1,64.7,29.83,SW,229,0.0,-999.0,68,0.00,,,0.00,Custom/Perl,2013-07-12 06:10:00,
2013-07-12 01:15:00,71.2,64.6,29.83,SSE,161,0.0,-999.0,67,0.00,,,0.00,Custom/Perl,2013-07-12 06:15:00,
2013-07-12 01:21:00,71.0,64.6,29.83,SSE,161,0.0,-999.0,68,0.00,,,0.00,Custom/Perl,2013-07-12 06:21:00,
2013-07-12 01:26:00,70.8,64.4,29.83,SSE,161,0.0,-999.0,68,0.00,,,0.00,Custom/Perl,2013-07-12 06:26:00,
2013-07-12 01:31:00,70.6,64.4,29.83,SSW,197,0.0,-999.0,69,0.00,,,0.00,Custom/Perl,2013-07-12 06:31:00,
2013-07-12 01:36:00,70.5,64.3,29.84,SSW,196,0.0,-999.0,69,0.00,,,0.00,Custom/Perl,2013-07-12 06:36:00,
2013-07-12 01:41:00,70.4,64.2,29.84,SSW,196,0.0,-999.0,69,0.00,,,0.00,Custom/Perl,2013-07-12 06:41:00,
2013-07-12 01:47:00,70.4,64.2,29.84,SSW,196,0.0,-999.0,69,0.00,,,0.00,Custom/Perl,2013-07-12 06:47:00,
2013-07-12 01:52:00,70.3,64.1,29.84,SSW,196,0.0,-999.0,69,0.00,,,0.00,Custom/Perl,2013-07-12 06:52:00,
2013-07-12 01:57:00,70.2,64.0,29.84,SE,141,0.0,-999.0,69,0.00,,,0.00,Custom/Perl,2013-07-12 06:57:00,
2013-07-12 02:02:00,70.1,64.1,29.84,South,179,0.0,-999.0,70,0.00,,,0.00,Custom/Perl,2013-07-12 07:02:00,
2013-07-12 02:07:00,70.1,64.1,29.84,SSW,206,0.0,-999.0,70,0.00,,,0.00,Custom/Perl,2013-07-12 07:07:00,
2013-07-12 02:13:00,70.1,64.1,29.84,West,264,0.0,-999.0,70,0.00,,,0.00,Custom/Perl,2013-07-12 07:13:00,
2013-07-12 02:18:00,70.2,64.2,29.84,West,275,0.0,-999.0,70,0.00,,,0.00,Custom/Perl,2013-07-12 07:18:00,
2013-07-12 02:23:00,70.3,64.3,29.84,WSW,249,0.0,-999.0,70,0.00,,,0.00,Custom/Perl,2013-07-12 07:23:00,
2013-07-12 02:28:00,70.3,64.3,29.84,West,266,0.0,-999.0,70,0.00,,,0.00,Custom/Perl,2013-07-12 07:28:00,
2013-07-12 02:34:00,70.3,64.3,29.84,West,266,0.0,-999.0,70,0.00,,,0.00,Custom/Perl,2013-07-12 07:34:00,
2013-07-12 02:39:00,70.2,64.2,29.84,SW,230,0.0,-999.0,70,0.00,,,0.00,Custom/Perl,2013-07-12 07:39:00,
2013-07-12 02:44:00,70.1,64.3,29.83,WNW,299,0.0,-999.0,71,0.00,,,0.00,Custom/Perl,2013-07-12 07:44:00,
2013-07-12 02:49:00,70.1,64.3,29.83,WSW,257,0.0,-999.0,71,0.00,,,0.00,Custom/Perl,2013-07-12 07:49:00,
2013-07-12 02:54:00,70.1,64.3,29.83,WSW,250,1.0,-999.0,71,0.00,,,0.00,Custom/Perl,2013-07-12 07:54:00,
2013-07-12 03:00:00,70.0,64.4,29.83,WNW,291,0.0,-999.0,72,0.00,,,0.00,Custom/Perl,2013-07-12 08:00:00,
2013-07-12 03:05:00,70.1,64.5,29.83,WSW,248,0.0,-999.0,72,0.00,,,0.00,Custom/Perl,2013-07-12 08:05:00,
2013-07-12 03:10:00,70.1,64.5,29.83,West,278,0.0,-999.0,72,0.00,,,0.00,Custom/Perl,2013-07-12 08:10:00,
2013-07-12 03:15:00,70.0,64.4,29.83,WSW,248,0.0,-999.0,72,0.00,,,0.00,Custom/Perl,2013-07-12 08:15:00,
2013-07-12 03:20:00,69.9,64.5,29.83,NNW,328,0.0,-999.0,73,0.00,,,0.00,Custom/Perl,2013-07-12 08:20:00,
2013-07-12 03:26:00,69.8,64.4,29.84,WSW,257,0.0,-999.0,73,0.00,,,0.00,Custom/Perl,2013-07-12 08:26:00,
2013-07-12 03:31:00,69.7,64.5,29.83,WSW,254,0.0,-999.0,74,0.00,,,0.00,Custom/Perl,2013-07-12 08:31:00,
2013-07-12 03:36:00,69.5,64.3,29.84,WNW,297,0.0,-999.0,74,0.00,,,0.00,Custom/Perl,2013-07-12 08:36:00,
2013-07-12 03:41:00,69.4,64.2,29.84,SW,233,0.0,-999.0,74,0.00,,,0.00,Custom/Perl,2013-07-12 08:41:00,
2013-07-12 03:46:00,69.3,64.1,29.84,SW,215,0.0,-999.0,74,0.00,,,0.00,Custom/Perl,2013-07-12 08:46:00,
2013-07-12 03:52:00,69.1,64.1,29.84,ENE,61,0.0,-999.0,75,0.00,,,0.00,Custom/Perl,2013-07-12 08:52:00,
2013-07-12 03:57:00,68.9,63.9,29.84,WSW,256,0.0,-999.0,75,0.00,,,0.00,Custom/Perl,2013-07-12 08:57:00,
2013-07-12 04:02:00,68.7,63.9,29.84,SW,229,0.0,-999.0,76,0.00,,,0.00,Custom/Perl,2013-07-12 09:02:00,
2013-07-12 04:07:00,68.6,63.8,29.83,SW,232,0.0,-999.0,76,0.00,,,0.00,Custom/Perl,2013-07-12 09:07:00,
2013-07-12 04:12:00,68.4,63.8,29.83,West,267,0.0,-999.0,77,0.00,,,0.00,Custom/Perl,2013-07-12 09:12:00,
2013-07-12 04:18:00,68.3,63.7,29.83,WNW,300,0.0,-999.0,77,0.00,,,0.00,Custom/Perl,2013-07-12 09:18:00,
2013-07-12 04:23:00,68.3,63.7,29.83,West,266,0.0,-999.0,77,0.00,,,0.00,Custom/Perl,2013-07-12 09:23:00,
2013-07-12 04:28:00,68.3,63.9,29.83,SW,229,0.0,-999.0,78,0.00,,,0.00,Custom/Perl,2013-07-12 09:28:00,
2013-07-12 04:33:00,68.3,63.9,29.84,SSW,198,0.0,-999.0,78,0.00,,,0.00,Custom/Perl,2013-07-12 09:33:00,
2013-07-12 04:39:00,68.4,64.0,29.84,WSW,237,0.0,-999.0,78,0.00,,,0.00,Custom/Perl,2013-07-12 09:39:00,
2013-07-12 04:44:00,68.4,64.0,29.84,West,264,0.0,-999.0,78,0.00,,,0.00,Custom/Perl,2013-07-12 09:44:00,
2013-07-12 04:49:00,68.5,64.1,29.84,West,259,0.0,-999.0,78,0.00,,,0.00,Custom/Perl,2013-07-12 09:49:00,
2013-07-12 04:54:00,68.6,64.2,29.84,WNW,288,0.0,-999.0,78,0.00,,,0.00,Custom/Perl,2013-07-12 09:54:00,
2013-07-12 04:59:00,68.6,64.2,29.84,WNW,301,0.0,-999.0,78,0.00,,,0.00,Custom/Perl,2013-07-12 09:59:00,
2013-07-12 05:05:00,68.6,64.2,29.84,West,259,0.0,-999.0,78,0.00,,,0.00,Custom/Perl,2013-07-12 10:05:00,
2013-07-12 05:10:00,68.7,64.3,29.84,SW,223,0.0,-999.0,78,0.00,,,0.00,Custom/Perl,2013-07-12 10:10:00,
2013-07-12 05:15:00,68.6,64.2,29.84,WSW,243,0.0,-999.0,78,0.00,,,0.00,Custom/Perl,2013-07-12 10:15:00,
2013-07-12 05:20:00,68.6,64.2,29.84,SW,224,0.0,-999.0,78,0.00,,,0.00,Custom/Perl,2013-07-12 10:20:00,
2013-07-12 05:25:00,68.5,64.1,29.84,WSW,251,0.0,-999.0,78,0.00,,,0.00,Custom/Perl,2013-07-12 10:25:00,
2013-07-12 05:31:00,68.5,64.1,29.84,West,280,0.0,-999.0,78,0.00,,,0.00,Custom/Perl,2013-07-12 10:31:00,
2013-07-12 05:36:00,68.5,64.1,29.84,NNW,331,0.0,-999.0,78,0.00,,,0.00,Custom/Perl,2013-07-12 10:36:00,
2013-07-12 05:41:00,68.5,64.1,29.84,SW,236,0.0,-999.0,78,0.00,,,0.00,Custom/Perl,2013-07-12 10:41:00,
2013-07-12 05:46:00,68.5,64.1,29.84,WNW,288,0.0,-999.0,78,0.00,,,0.00,Custom/Perl,2013-07-12 10:46:00,
2013-07-12 05:52:00,68.5,64.1,29.84,NNW,332,0.0,-999.0,78,0.00,,,0.00,Custom/Perl,2013-07-12 10:52:00,
2013-07-12 05:57:00,68.4,64.0,29.84,SW,218,0.0,-999.0,78,0.00,,,0.00,Custom/Perl,2013-07-12 10:57:00,
2013-07-12 06:02:00,68.4,64.0,29.84,NE,47,0.0,-999.0,78,0.00,,,0.00,Custom/Perl,2013-07-12 11:02:00,
2013-07-12 06:07:00,68.3,63.9,29.84,West,268,0.0,-999.0,78,0.00,,,0.00,Custom/Perl,2013-07-12 11:07:00,
2013-07-12 06:12:00,68.3,63.9,29.85,West,260,0.0,-999.0,78,0.00,,,0.00,Custom/Perl,2013-07-12 11:12:00,
2013-07-12 06:18:00,68.4,64.0,29.85,WSW,242,0.0,-999.0,78,0.00,,,0.00,Custom/Perl,2013-07-12 11:18:00,
2013-07-12 06:23:00,68.5,64.1,29.85,WNW,283,0.0,-999.0,78,0.00,,,0.00,Custom/Perl,2013-07-12 11:23:00,
2013-07-12 06:28:00,68.6,64.2,29.85,West,266,0.0,-999.0,78,0.00,,,0.00,Custom/Perl,2013-07-12 11:28:00,
2013-07-12 06:33:00,68.6,64.2,29.85,SSW,209,0.0,-999.0,78,0.00,,,0.00,Custom/Perl,2013-07-12 11:33:00,
2013-07-12 06:39:00,68.7,64.3,29.85,SW,228,0.0,-999.0,78,0.00,,,0.00,Custom/Perl,2013-07-12 11:39:00,
2013-07-12 06:44:00,68.8,64.2,29.85,SW,232,0.0,-999.0,77,0.00,,,0.00,Custom/Perl,2013-07-12 11:44:00,
2013-07-12 06:49:00,68.9,64.3,29.85,West,264,1.0,-999.0,77,0.00,,,0.00,Custom/Perl,2013-07-12 11:49:00,
2013-07-12 06:54:00,69.1,64.5,29.85,WSW,257,1.0,-999.0,77,0.00,,,0.00,Custom/Perl,2013-07-12 11:54:00,
2013-07-12 06:59:00,69.3,64.5,29.85,West,277,0.0,-999.0,76,0.00,,,0.00,Custom/Perl,2013-07-12 11:59:00,
2013-07-12 07:05:00,69.4,64.4,29.85,SW,220,0.0,-999.0,75,0.00,,,0.00,Custom/Perl,2013-07-12 12:05:00,
2013-07-12 07:10:00,69.7,64.5,29.85,SW,220,1.0,-999.0,74,0.00,,,0.00,Custom/Perl,2013-07-12 12:10:00,
2013-07-12 07:15:00,69.9,64.7,29.85,ENE,66,3.0,-999.0,74,0.00,,,0.00,Custom/Perl,2013-07-12 12:15:00,
2013-07-12 07:20:00,70.2,65.0,29.85,SE,125,0.0,-999.0,74,0.00,,,0.00,Custom/Perl,2013-07-12 12:20:00,
2013-07-12 07:25:00,70.4,65.0,29.85,West,259,0.0,-999.0,73,0.00,,,0.00,Custom/Perl,2013-07-12 12:25:00,
2013-07-12 07:31:00,70.7,65.3,29.85,SW,229,0.0,-999.0,73,0.00,,,0.00,Custom/Perl,2013-07-12 12:31:00,
2013-07-12 07:36:00,70.9,65.3,29.85,WSW,248,0.0,-999.0,72,0.00,,,0.00,Custom/Perl,2013-07-12 12:36:00,
2013-07-12 07:41:00,71.2,65.4,29.85,WNW,296,1.0,-999.0,71,0.00,,,0.00,Custom/Perl,2013-07-12 12:41:00,
2013-07-12 07:46:00,71.4,65.4,29.85,NW,308,0.0,-999.0,70,0.00,,,0.00,Custom/Perl,2013-07-12 12:46:00,
2013-07-12 07:52:00,71.7,65.7,29.85,WNW,288,0.0,-999.0,70,0.00,,,0.00,Custom/Perl,2013-07-12 12:52:00,
2013-07-12 07:57:00,71.9,65.7,29.85,SSW,202,0.0,-999.0,69,0.00,,,0.00,Custom/Perl,2013-07-12 12:57:00,
2013-07-12 08:02:00,72.2,66.0,29.85,WSW,241,2.0,-999.0,69,0.00,,,0.00,Custom/Perl,2013-07-12 13:02:00,
2013-07-12 08:07:00,72.5,66.1,29.85,WNW,298,1.0,-999.0,68,0.00,,,0.00,Custom/Perl,2013-07-12 13:07:00,
2013-07-12 08:12:00,72.7,66.1,29.85,ESE,103,1.0,-999.0,67,0.00,,,0.00,Custom/Perl,2013-07-12 13:12:00,
2013-07-12 08:18:00,73.0,66.4,29.86,WSW,258,1.0,-999.0,67,0.00,,,0.00,Custom/Perl,2013-07-12 13:18:00,
2013-07-12 08:23:00,73.3,66.7,29.86,SW,228,0.0,-999.0,67,0.00,,,0.00,Custom/Perl,2013-07-12 13:23:00,
2013-07-12 08:28:00,73.5,66.7,29.86,SSW,200,2.0,-999.0,66,0.00,,,0.00,Custom/Perl,2013-07-12 13:28:00,
2013-07-12 08:33:00,73.7,66.9,29.86,West,270,1.0,-999.0,66,0.00,,,0.00,Custom/Perl,2013-07-12 13:33:00,
2013-07-12 08:38:00,74.0,67.4,29.86,WNW,282,0.0,-999.0,67,0.00,,,0.00,Custom/Perl,2013-07-12 13:38:00,
2013-07-12 08:44:00,74.4,67.4,29.86,West,266,1.0,-999.0,65,0.00,,,0.00,Custom/Perl,2013-07-12 13:44:00,
2013-07-12 08:49:00,74.6,67.6,29.86,South,179,2.0,-999.0,65,0.00,,,0.00,Custom/Perl,2013-07-12 13:49:00,
2013-07-12 08:54:00,74.8,67.8,29.86,WNW,292,1.0,-999.0,65,0.00,,,0.00,Custom/Perl,2013-07-12 13:54:00,
2013-07-12 08:59:00,75.3,68.3,29.86,SW,219,5.0,-999.0,65,0.00,,,0.00,Custom/Perl,2013-07-12 13:59:00,
2013-07-12 09:04:00,75.4,68.2,29.86,SSE,155,5.0,-999.0,64,0.00,,,0.00,Custom/Perl,2013-07-12 14:04:00,
2013-07-12 09:10:00,75.8,68.8,29.86,South,169,1.0,-999.0,65,0.00,,,0.00,Custom/Perl,2013-07-12 14:10:00,
2013-07-12 09:15:00,76.2,69.4,29.86,WSW,238,0.0,-999.0,66,0.00,,,0.00,Custom/Perl,2013-07-12 14:15:00,
2013-07-12 09:20:00,76.6,69.4,29.86,NW,310,1.0,-999.0,64,0.00,,,0.00,Custom/Perl,2013-07-12 14:20:00,
2013-07-12 09:25:00,77.1,69.9,29.85,NNE,32,1.0,-999.0,64,0.00,,,0.00,Custom/Perl,2013-07-12 14:25:00,
2013-07-12 09:30:00,77.4,70.0,29.85,SW,223,1.0,-999.0,63,0.00,,,0.00,Custom/Perl,2013-07-12 14:30:00,
2013-07-12 09:36:00,77.5,70.1,29.86,South,191,3.0,-999.0,63,0.00,,,0.00,Custom/Perl,2013-07-12 14:36:00,
2013-07-12 09:41:00,77.7,70.1,29.85,NNW,330,0.0,-999.0,62,0.00,,,0.00,Custom/Perl,2013-07-12 14:41:00,
2013-07-12 09:46:00,78.3,70.7,29.85,SW,232,3.0,-999.0,62,0.00,,,0.00,Custom/Perl,2013-07-12 14:46:00,
2013-07-12 09:51:00,78.6,70.8,29.85,South,184,3.0,-999.0,61,0.00,,,0.00,Custom/Perl,2013-07-12 14:51:00,
2013-07-12 09:56:00,79.2,71.6,29.85,WSW,242,1.0,-999.0,62,0.00,,,0.00,Custom/Perl,2013-07-12 14:56:00,
2013-07-12 10:02:00,79.5,71.7,29.85,WSW,253,2.0,-999.0,61,0.00,,,0.00,Custom/Perl,2013-07-12 15:02:00,
2013-07-12 10:07:00,79.7,71.7,29.85,SW,228,2.0,-999.0,60,0.00,,,0.00,Custom/Perl,2013-07-12 15:07:00,
2013-07-12 10:12:00,80.0,72.0,29.85,WSW,255,0.0,-999.0,60,0.00,,,0.00,Custom/Perl,2013-07-12 15:12:00,
2013-07-12 10:17:00,80.7,72.9,29.85,SW,227,1.0,-999.0,61,0.00,,,0.00,Custom/Perl,2013-07-12 15:17:00,
2013-07-12 10:23:00,81.2,72.8,29.85,West,261,0.0,-999.0,58,0.00,,,0.00,Custom/Perl,2013-07-12 15:23:00,
2013-07-12 10:28:00,81.3,72.9,29.85,SSW,204,2.0,-999.0,58,0.00,,,0.00,Custom/Perl,2013-07-12 15:28:00,
2013-07-12 10:33:00,81.6,73.2,29.85,SSW,198,3.0,-999.0,58,0.00,,,0.00,Custom/Perl,2013-07-12 15:33:00,
2013-07-12 10:38:00,81.7,73.1,29.84,SSW,207,2.0,-999.0,57,0.00,,,0.00,Custom/Perl,2013-07-12 15:38:00,
2013-07-12 10:43:00,81.9,73.5,29.84,NNW,348,1.0,-999.0,58,0.00,,,0.00,Custom/Perl,2013-07-12 15:43:00,
2013-07-12 10:49:00,82.4,73.8,29.84,SW,227,0.0,-999.0,57,0.00,,,0.00,Custom/Perl,2013-07-12 15:49:00,
2013-07-12 10:54:00,82.9,74.5,29.84,NW,316,1.0,-999.0,58,0.00,,,0.00,Custom/Perl,2013-07-12 15:54:00,
2013-07-12 10:59:00,83.2,74.6,29.84,WNW,294,0.0,-999.0,57,0.00,,,0.00,Custom/Perl,2013-07-12 15:59:00,
2013-07-12 11:04:00,83.4,74.8,29.84,SSW,198,4.0,-999.0,57,0.00,,,0.00,Custom/Perl,2013-07-12 16:04:00,
2013-07-12 11:09:00,83.8,75.0,29.84,WSW,245,4.0,-999.0,56,0.00,,,0.00,Custom/Perl,2013-07-12 16:09:00,
2013-07-12 11:15:00,84.2,75.4,29.84,WSW,245,2.0,-999.0,56,0.00,,,0.00,Custom/Perl,2013-07-12 16:15:00,
2013-07-12 11:20:00,84.5,75.5,29.84,WNW,300,2.0,-999.0,55,0.00,,,0.00,Custom/Perl,2013-07-12 16:20:00,
2013-07-12 11:25:00,85.0,76.6,29.84,West,266,0.0,-999.0,58,0.00,,,0.00,Custom/Perl,2013-07-12 16:25:00,
2013-07-12 11:30:00,85.4,76.4,29.84,WNW,293,2.0,-999.0,55,0.00,,,0.00,Custom/Perl,2013-07-12 16:30:00,
2013-07-12 11:35:00,85.6,77.0,29.84,SSW,202,1.0,-999.0,57,0.00,,,0.00,Custom/Perl,2013-07-12 16:35:00,
2013-07-12 11:41:00,86.0,77.0,29.84,West,278,1.0,-999.0,55,0.00,,,0.00,Custom/Perl,2013-07-12 16:41:00,
2013-07-12 11:46:00,86.3,77.3,29.84,WSW,246,0.0,-999.0,55,0.00,,,0.00,Custom/Perl,2013-07-12 16:46:00,
2013-07-12 11:52:00,86.4,77.2,29.84,NNW,330,2.0,-999.0,54,0.00,,,0.00,Custom/Perl,2013-07-12 16:52:00,
2013-07-12 11:57:00,86.7,77.5,29.84,West,276,1.0,-999.0,54,0.00,,,0.00,Custom/Perl,2013-07-12 16:57:00,
2013-07-12 12:03:00,86.8,77.4,29.84,WNW,289,0.0,-999.0,53,0.00,,,0.00,Custom/Perl,2013-07-12 17:03:00,
2013-07-12 12:09:00,87.1,77.9,29.84,WNW,287,0.0,-999.0,54,0.00,,,0.00,Custom/Perl,2013-07-12 17:09:00,
2013-07-12 12:15:00,87.3,77.9,29.83,South,189,4.0,-999.0,53,0.00,,,0.00,Custom/Perl,2013-07-12 17:15:00,
2013-07-12 12:21:00,87.3,77.9,29.83,South,170,3.0,-999.0,53,0.00,,,0.00,Custom/Perl,2013-07-12 17:21:00,
2013-07-12 12:27:00,87.5,78.3,29.83,WNW,300,1.0,-999.0,54,0.00,,,0.00,Custom/Perl,2013-07-12 17:27:00,
2013-07-12 12:32:00,87.8,78.2,29.83,SSW,198,0.0,-999.0,52,0.00,,,0.00,Custom/Perl,2013-07-12 17:32:00,
2013-07-12 12:37:00,88.2,78.8,29.83,SW,228,0.0,-999.0,53,0.00,,,0.00,Custom/Perl,2013-07-12 17:37:00,
2013-07-12 12:43:00,88.5,78.9,29.83,South,188,2.0,-999.0,52,0.00,,,0.00,Custom/Perl,2013-07-12 17:43:00,
2013-07-12 12:48:00,88.7,79.1,29.83,SW,214,1.0,-999.0,52,0.00,,,0.00,Custom/Perl,2013-07-12 17:48:00,
2013-07-12 12:54:00,88.7,78.9,29.83,NE,45,2.0,-999.0,51,0.00,,,0.00,Custom/Perl,2013-07-12 17:54:00,
2013-07-12 12:59:00,89.1,79.5,29.83,NW,319,0.0,-999.0,52,0.00,,,0.00,Custom/Perl,2013-07-12 17:59:00,
2013-07-12 13:05:00,89.2,79.2,29.83,SW,217,2.0,-999.0,50,0.00,,,0.00,Custom/Perl,2013-07-12 18:05:00,
2013-07-12 13:10:00,89.7,79.9,29.83,WNW,286,1.0,-999.0,51,0.00,,,0.00,Custom/Perl,2013-07-12 18:10:00,
2013-07-12 13:16:00,90.1,80.7,29.83,SE,145,0.0,-999.0,53,0.00,,,0.00,Custom/Perl,2013-07-12 18:16:00,
2013-07-12 13:22:00,90.4,80.6,29.83,SSW,193,6.0,-999.0,51,0.00,,,0.00,Custom/Perl,2013-07-12 18:22:00,
2013-07-12 13:27:00,90.4,80.8,29.82,WSW,256,2.0,-999.0,52,0.00,,,0.00,Custom/Perl,2013-07-12 18:27:00,
2013-07-12 13:32:00,90.6,80.6,29.82,SSW,209,1.0,-999.0,50,0.00,,,0.00,Custom/Perl,2013-07-12 18:32:00,
2013-07-12 13:38:00,91.1,81.1,29.82,SSW,205,4.0,-999.0,50,0.00,,,0.00,Custom/Perl,2013-07-12 18:38:00,
2013-07-12 13:44:00,90.9,81.3,29.82,WSW,255,0.0,-999.0,52,0.00,,,0.00,Custom/Perl,2013-07-12 18:44:00,
2013-07-12 13:49:00,91.5,81.3,29.81,South,184,2.0,-999.0,49,0.00,,,0.00,Custom/Perl,2013-07-12 18:49:00,
2013-07-12 13:55:00,91.3,81.7,29.82,West,259,0.0,-999.0,52,0.00,,,0.00,Custom/Perl,2013-07-12 18:55:00,
2013-07-12 14:00:00,91.9,81.7,29.82,West,274,0.0,-999.0,49,0.00,,,0.00,Custom/Perl,2013-07-12 19:00:00,
2013-07-12 14:06:00,92.3,82.1,29.81,WSW,246,0.0,-999.0,49,0.00,,,0.00,Custom/Perl,2013-07-12 19:06:00,
2013-07-12 14:13:00,92.5,82.5,29.81,WNW,293,1.0,-999.0,50,0.00,,,0.00,Custom/Perl,2013-07-12 19:13:00,
2013-07-12 14:18:00,92.6,82.2,29.81,West,270,1.0,-999.0,48,0.00,,,0.00,Custom/Perl,2013-07-12 19:18:00,
2013-07-12 14:24:00,92.6,82.2,29.81,SSE,166,3.0,-999.0,48,0.00,,,0.00,Custom/Perl,2013-07-12 19:24:00,
2013-07-12 14:29:00,92.7,82.7,29.81,West,271,0.0,-999.0,50,0.00,,,0.00,Custom/Perl,2013-07-12 19:29:00,
2013-07-12 14:36:00,92.9,83.1,29.80,NW,309,2.0,-999.0,51,0.00,,,0.00,Custom/Perl,2013-07-12 19:36:00,
2013-07-12 14:42:00,92.7,82.5,29.80,West,276,1.0,-999.0,49,0.00,,,0.00,Custom/Perl,2013-07-12 19:42:00,
2013-07-12 14:47:00,93.0,83.0,29.80,SW,232,4.0,-999.0,50,0.00,,,0.00,Custom/Perl,2013-07-12 19:47:00,
2013-07-12 14:52:00,93.1,83.1,29.80,West,276,0.0,-999.0,50,0.00,,,0.00,Custom/Perl,2013-07-12 19:52:00,
2013-07-12 14:58:00,93.2,82.8,29.80,WNW,284,1.0,-999.0,48,0.00,,,0.00,Custom/Perl,2013-07-12 19:58:00,
2013-07-12 15:03:00,93.2,83.0,29.80,SW,228,1.0,-999.0,49,0.00,,,0.00,Custom/Perl,2013-07-12 20:03:00,
2013-07-12 15:09:00,93.4,83.4,29.80,SSW,198,3.0,-999.0,50,0.00,,,0.00,Custom/Perl,2013-07-12 20:09:00,
2013-07-12 15:14:00,93.4,83.2,29.80,WNW,302,0.0,-999.0,49,0.00,,,0.00,Custom/Perl,2013-07-12 20:14:00,
2013-07-12 15:19:00,93.6,83.6,29.80,SW,220,1.0,-999.0,50,0.00,,,0.00,Custom/Perl,2013-07-12 20:19:00,
2013-07-12 15:24:00,94.2,84.0,29.80,NW,319,1.0,-999.0,49,0.00,,,0.00,Custom/Perl,2013-07-12 20:24:00,
2013-07-12 15:30:00,94.5,83.9,29.80,NW,311,2.0,-999.0,47,0.00,,,0.00,Custom/Perl,2013-07-12 20:30:00,
2013-07-12 15:35:00,94.4,84.0,29.80,WSW,250,1.0,-999.0,48,0.00,,,0.00,Custom/Perl,2013-07-12 20:35:00,
2013-07-12 15:40:00,94.1,83.5,29.80,NNE,28,1.0,-999.0,47,0.00,,,0.00,Custom/Perl,2013-07-12 20:40:00,
2013-07-12 15:46:00,94.2,83.8,29.80,SW,236,2.0,-999.0,48,0.00,,,0.00,Custom/Perl,2013-07-12 20:46:00,
2013-07-12 15:53:00,94.1,83.7,29.80,West,262,1.0,-999.0,48,0.00,,,0.00,Custom/Perl,2013-07-12 20:53:00,
2013-07-12 15:59:00,94.7,84.3,29.80,SSW,203,1.0,-999.0,48,0.00,,,0.00,Custom/Perl,2013-07-12 20:59:00,
2013-07-12 16:04:00,94.9,84.5,29.79,WSW,254,1.0,-999.0,48,0.00,,,0.00,Custom/Perl,2013-07-12 21:04:00,
2013-07-12 16:11:00,94.5,84.3,29.79,NW,304,0.0,-999.0,49,0.00,,,0.00,Custom/Perl,2013-07-12 21:11:00,
2013-07-12 16:17:00,94.7,84.1,29.79,SW,230,6.0,-999.0,47,0.00,,,0.00,Custom/Perl,2013-07-12 21:17:00,
2013-07-12 16:22:00,94.5,83.9,29.79,WSW,255,2.0,-999.0,47,0.00,,,0.00,Custom/Perl,2013-07-12 21:22:00,
2013-07-12 16:27:00,94.3,83.9,29.79,North,7,2.0,-999.0,48,0.00,,,0.00,Custom/Perl,2013-07-12 21:27:00,
2013-07-12 16:32:00,94.1,83.5,29.79,NW,324,0.0,-999.0,47,0.00,,,0.00,Custom/Perl,2013-07-12 21:32:00,
2013-07-12 16:39:00,94.3,83.9,29.79,South,176,1.0,-999.0,48,0.00,,,0.00,Custom/Perl,2013-07-12 21:39:00,
2013-07-12 16:45:00,94.8,84.2,29.79,West,266,1.0,-999.0,47,0.00,,,0.00,Custom/Perl,2013-07-12 21:45:00,
2013-07-12 16:50:00,94.5,84.1,29.79,WSW,253,1.0,-999.0,48,0.00,,,0.00,Custom/Perl,2013-07-12 21:50:00,
2013-07-12 16:55:00,94.7,84.1,29.79,WSW,246,0.0,-999.0,47,0.00,,,0.00,Custom/Perl,2013-07-12 21:55:00,
2013-07-12 17:01:00,94.9,84.3,29.79,South,191,3.0,-999.0,47,0.00,,,0.00,Custom/Perl,2013-07-12 22:01:00,
2013-07-12 17:09:00,94.7,84.1,29.79,West,271,0.0,-999.0,47,0.00,,,0.00,Custom/Perl,2013-07-12 22:09:00,
2013-07-12 17:15:00,94.6,83.8,29.78,WNW,295,1.0,-999.0,46,0.00,,,0.00,Custom/Perl,2013-07-12 22:15:00,
2013-07-12 17:21:00,94.9,84.1,29.78,West,281,3.0,-999.0,46,0.00,,,0.00,Custom/Perl,2013-07-12 22:21:00,
2013-07-12 17:27:00,94.8,84.2,29.78,WSW,246,3.0,-999.0,47,0.00,,,0.00,Custom/Perl,2013-07-12 22:27:00,
2013-07-12 17:33:00,94.7,84.3,29.78,SSW,205,3.0,-999.0,48,0.00,,,0.00,Custom/Perl,2013-07-12 22:33:00,
2013-07-12 17:38:00,94.7,84.1,29.78,NW,307,0.0,-999.0,47,0.00,,,0.00,Custom/Perl,2013-07-12 22:38:00,
2013-07-12 17:43:00,94.6,84.0,29.78,South,171,3.0,-999.0,47,0.00,,,0.00,Custom/Perl,2013-07-12 22:43:00,
2013-07-12 17:49:00,94.8,84.2,29.78,SSW,205,1.0,-999.0,47,0.00,,,0.00,Custom/Perl,2013-07-12 22:49:00,
2013-07-12 17:56:00,94.8,84.2,29.78,West,268,1.0,-999.0,47,0.00,,,0.00,Custom/Perl,2013-07-12 22:56:00,
2013-07-12 18:02:00,94.6,84.0,29.78,ENE,72,1.0,-999.0,47,0.00,,,0.00,Custom/Perl,2013-07-12 23:02:00,
2013-07-12 18:07:00,94.9,84.3,29.77,West,264,0.0,-999.0,47,0.00,,,0.00,Custom/Perl,2013-07-12 23:07:00,
2013-07-12 18:12:00,94.5,83.9,29.77,WSW,248,2.0,-999.0,47,0.00,,,0.00,Custom/Perl,2013-07-12 23:12:00,
2013-07-12 18:17:00,94.5,83.7,29.77,East,89,4.0,-999.0,46,0.00,,,0.00,Custom/Perl,2013-07-12 23:17:00,
2013-07-12 18:25:00,94.5,83.7,29.77,SSE,160,3.0,-999.0,46,0.00,,,0.00,Custom/Perl,2013-07-12 23:25:00,
2013-07-12 18:31:00,94.3,83.5,29.77,SSE,148,3.0,-999.0,46,0.00,,,0.00,Custom/Perl,2013-07-12 23:31:00,
2013-07-12 18:36:00,94.2,83.6,29.77,South,180,0.0,-999.0,47,0.00,,,0.00,Custom/Perl,2013-07-12 23:36:00,
2013-07-12 18:41:00,94.0,83.4,29.77,SW,221,4.0,-999.0,47,0.00,,,0.00,Custom/Perl,2013-07-12 23:41:00,
2013-07-12 18:46:00,93.7,83.1,29.77,SSW,198,4.0,-999.0,47,0.00,,,0.00,Custom/Perl,2013-07-12 23:46:00,
2013-07-12 18:52:00,93.2,82.6,29.77,SW,217,7.0,-999.0,47,0.00,,,0.00,Custom/Perl,2013-07-12 23:52:00,
2013-07-12 18:57:00,93.1,82.7,29.77,SW,217,1.0,-999.0,48,0.00,,,0.00,Custom/Perl,2013-07-12 23:57:00,
2013-07-12 19:02:00,92.7,82.3,29.77,SSE,160,4.0,-999.0,48,0.00,,,0.00,Custom/Perl,2013-07-13 00:02:00,
2013-07-12 19:07:00,92.5,82.3,29.77,North,4,2.0,-999.0,49,0.00,,,0.00,Custom/Perl,2013-07-13 00:07:00,
2013-07-12 19:13:00,92.2,82.2,29.77,West,276,0.0,-999.0,50,0.00,,,0.00,Custom/Perl,2013-07-13 00:13:00,
2013-07-12 19:18:00,91.9,81.9,29.77,SSW,205,1.0,-999.0,50,0.00,,,0.00,Custom/Perl,2013-07-13 00:18:00,
2013-07-12 19:23:00,91.5,81.5,29.77,SW,221,1.0,-999.0,50,0.00,,,0.00,Custom/Perl,2013-07-13 00:23:00,
2013-07-12 19:29:00,90.8,81.0,29.78,WSW,243,4.0,-999.0,51,0.00,,,0.00,Custom/Perl,2013-07-13 00:29:00,
2013-07-12 19:35:00,90.2,80.6,29.77,West,265,2.0,-999.0,52,0.00,,,0.00,Custom/Perl,2013-07-13 00:35:00,
2013-07-12 19:40:00,89.8,80.4,29.77,SW,231,1.0,-999.0,53,0.00,,,0.00,Custom/Perl,2013-07-13 00:40:00,
2013-07-12 19:45:00,89.5,80.1,29.78,SSW,192,0.0,-999.0,53,0.00,,,0.00,Custom/Perl,2013-07-13 00:45:00,
2013-07-12 19:51:00,89.4,80.0,29.78,WNW,292,0.0,-999.0,53,0.00,,,0.00,Custom/Perl,2013-07-13 00:51:00,
2013-07-12 19:56:00,89.0,79.6,29.78,WSW,254,0.0,-999.0,53,0.00,,,0.00,Custom/Perl,2013-07-13 00:56:00,
2013-07-12 20:01:00,88.7,79.5,29.78,WSW,238,2.0,-999.0,54,0.00,,,0.00,Custom/Perl,2013-07-13 01:01:00,
2013-07-12 20:06:00,88.2,79.0,29.78,South,174,0.0,-999.0,54,0.00,,,0.00,Custom/Perl,2013-07-13 01:06:00,
2013-07-12 20:12:00,87.9,78.9,29.78,West,271,0.0,-999.0,55,0.00,,,0.00,Custom/Perl,2013-07-13 01:12:00,
2013-07-12 20:17:00,87.5,78.7,29.78,SSW,192,1.0,-999.0,56,0.00,,,0.00,Custom/Perl,2013-07-13 01:17:00,
2013-07-12 20:23:00,87.2,78.4,29.78,SW,224,1.0,-999.0,56,0.00,,,0.00,Custom/Perl,2013-07-13 01:23:00,
2013-07-12 20:28:00,86.8,78.2,29.78,SSW,198,0.0,-999.0,57,0.00,,,0.00,Custom/Perl,2013-07-13 01:28:00,
2013-07-12 20:34:00,86.2,77.8,29.78,WSW,257,0.0,-999.0,58,0.00,,,0.00,Custom/Perl,2013-07-13 01:34:00,
2013-07-12 20:41:00,85.6,77.4,29.78,WSW,253,0.0,-999.0,59,0.00,,,0.00,Custom/Perl,2013-07-13 01:41:00,
2013-07-12 20:46:00,85.3,77.3,29.78,SW,229,0.0,-999.0,60,0.00,,,0.00,Custom/Perl,2013-07-13 01:46:00,
2013-07-12 20:51:00,85.0,77.0,29.78,WSW,253,0.0,-999.0,60,0.00,,,0.00,Custom/Perl,2013-07-13 01:51:00,
2013-07-12 20:56:00,84.7,76.7,29.78,WNW,299,1.0,-999.0,60,0.00,,,0.00,Custom/Perl,2013-07-13 01:56:00,
2013-07-12 21:01:00,84.4,76.4,29.78,West,259,0.0,-999.0,60,0.00,,,0.00,Custom/Perl,2013-07-13 02:01:00,
2013-07-12 21:07:00,84.1,76.3,29.78,WSW,247,0.0,-999.0,61,0.00,,,0.00,Custom/Perl,2013-07-13 02:07:00,
2013-07-12 21:12:00,83.9,76.1,29.78,West,264,1.0,-999.0,61,0.00,,,0.00,Custom/Perl,2013-07-13 02:12:00,
2013-07-12 21:17:00,83.7,75.9,29.78,SW,231,0.0,-999.0,61,0.00,,,0.00,Custom/Perl,2013-07-13 02:17:00,
2013-07-12 21:23:00,83.6,76.0,29.78,SW,214,0.0,-999.0,62,0.00,,,0.00,Custom/Perl,2013-07-13 02:23:00,
2013-07-12 21:28:00,83.3,75.7,29.78,WSW,244,0.0,-999.0,62,0.00,,,0.00,Custom/Perl,2013-07-13 02:28:00,
2013-07-12 21:33:00,83.2,75.8,29.79,WNW,301,0.0,-999.0,63,0.00,,,0.00,Custom/Perl,2013-07-13 02:33:00,
2013-07-12 21:40:00,82.9,75.5,29.79,WSW,253,0.0,-999.0,63,0.00,,,0.00,Custom/Perl,2013-07-13 02:40:00,
2013-07-12 21:45:00,82.5,75.1,29.79,NW,323,0.0,-999.0,63,0.00,,,0.00,Custom/Perl,2013-07-13 02:45:00,
2013-07-12 21:51:00,82.3,74.9,29.80,WNW,293,0.0,-999.0,63,0.00,,,0.00,Custom/Perl,2013-07-13 02:51:00,
2013-07-12 21:56:00,82.0,74.6,29.80,WSW,238,0.0,-999.0,63,0.00,,,0.00,Custom/Perl,2013-07-13 02:56:00,
2013-07-12 22:01:00,81.8,74.4,29.80,SW,235,0.0,-999.0,63,0.00,,,0.00,Custom/Perl,2013-07-13 03:01:00,
2013-07-12 22:08:00,81.5,74.1,29.80,South,183,0.0,-999.0,63,0.00,,,0.00,Custom/Perl,2013-07-13 03:08:00,
2013-07-12 22:13:00,81.2,73.8,29.80,WNW,287,0.0,-999.0,63,0.00,,,0.00,Custom/Perl,2013-07-13 03:13:00,
2013-07-12 22:19:00,81.1,73.5,29.80,West,259,0.0,-999.0,62,0.00,,,0.00,Custom/Perl,2013-07-13 03:19:00,
2013-07-12 22:24:00,80.9,73.3,29.80,West,260,0.0,-999.0,62,0.00,,,0.00,Custom/Perl,2013-07-13 03:24:00,
2013-07-12 22:30:00,80.6,73.0,29.80,West,262,0.0,-999.0,62,0.00,,,0.00,Custom/Perl,2013-07-13 03:30:00,
2013-07-12 22:35:00,80.4,72.8,29.80,NW,319,0.0,-999.0,62,0.00,,,0.00,Custom/Perl,2013-07-13 03:35:00,
2013-07-12 22:41:00,80.1,72.3,29.80,WSW,255,0.0,-999.0,61,0.00,,,0.00,Custom/Perl,2013-07-13 03:41:00,
2013-07-12 22:46:00,79.9,72.1,29.80,WSW,241,0.0,-999.0,61,0.00,,,0.00,Custom/Perl,2013-07-13 03:46:00,
2013-07-12 22:52:00,79.6,71.8,29.80,WSW,245,0.0,-999.0,61,0.00,,,0.00,Custom/Perl,2013-07-13 03:52:00,
2013-07-12 22:57:00,79.5,71.7,29.80,West,262,0.0,-999.0,61,0.00,,,0.00,Custom/Perl,2013-07-13 03:57:00,
2013-07-12 23:01:00,79.4,71.6,29.80,WSW,257,0.0,-999.0,61,0.00,,,0.00,Custom/Perl,2013-07-13 04:01:00,
2013-07-12 23:02:00,79.4,71.6,29.80,West,269,0.0,-999.0,61,0.00,,,0.00,Custom/Perl,2013-07-13 04:02:00,
2013-07-12 23:03:00,79.3,71.5,29.80,West,269,0.0,-999.0,61,0.00,,,0.00,Custom/Perl,2013-07-13 04:03:00,
2013-07-12 23:07:00,79.1,71.3,29.80,West,281,0.0,-999.0,61,0.00,,,0.00,Custom/Perl,2013-07-13 04:07:00,
2013-07-12 23:12:00,78.9,71.3,29.80,SW,220,0.0,-999.0,62,0.00,,,0.00,Custom/Perl,2013-07-13 04:12:00,
2013-07-12 23:18:00,78.8,71.2,29.80,West,259,0.0,-999.0,62,0.00,,,0.00,Custom/Perl,2013-07-13 04:18:00,
2013-07-12 23:23:00,78.6,71.0,29.80,SW,230,0.0,-999.0,62,0.00,,,0.00,Custom/Perl,2013-07-13 04:23:00,
2013-07-12 23:28:00,78.5,70.9,29.80,WSW,243,0.0,-999.0,62,0.00,,,0.00,Custom/Perl,2013-07-13 04:28:00,
2013-07-12 23:33:00,78.2,70.8,29.80,WNW,290,0.0,-999.0,63,0.00,,,0.00,Custom/Perl,2013-07-13 04:33:00,
2013-07-12 23:38:00,78.0,70.8,29.80,NW,304,0.0,-999.0,64,0.00,,,0.00,Custom/Perl,2013-07-13 04:38:00,
2013-07-12 23:44:00,77.8,70.6,29.80,WSW,241,0.0,-999.0,64,0.00,,,0.00,Custom/Perl,2013-07-13 04:44:00,
2013-07-12 23:49:00,77.7,70.5,29.80,WSW,240,0.0,-999.0,64,0.00,,,0.00,Custom/Perl,2013-07-13 04:49:00,
2013-07-12 23:54:00,77.5,70.3,29.80,SSW,196,0.0,-999.0,64,0.00,,,0.00,Custom/Perl,2013-07-13 04:54:00,
2013-07-12 23:59:00,77.3,70.3,29.81,WSW,243,0.0,-999.0,65,0.00,,,0.00,Custom/Perl,2013-07-13 04:59:00,